Time;durP1;ratioP1;P1;durP2;ratioP2;P2;SDS_P1;SDS_P2;PMS_P1;PMS_P2;Temp;Humidity;BMP_temperature;BMP_pressure;BME280_temperature;BME280_humidity;BME280_pressure;Samples;Min_cycle;Max_cycle;Signal;HPM_P1;HPM_P2
2021/12/31 00:01:28;;;;;;;6.57;5.70;;;;;;;;;;5095981;28;20491;-68
2021/12/31 00:03:55;;;;;;;8.00;6.17;;;;;;;;;;5095846;28;20475;-68
2021/12/31 00:06:23;;;;;;;6.50;6.00;;;;;;;;;;5096484;28;20528;-67
2021/12/31 00:08:50;;;;;;;7.53;6.83;;;;;;;;;;5095750;28;20537;-67
2021/12/31 00:11:17;;;;;;;6.00;5.50;;;;;;;;;;5095906;28;20959;-67
2021/12/31 00:13:46;;;;;;;6.23;4.90;;;;;;;;;;5096561;28;20537;-68
2021/12/31 00:16:13;;;;;;;5.67;5.17;;;;;;;;;;5095812;28;20501;-67
2021/12/31 00:18:40;;;;;;;6.63;4.87;;;;;;;;;;5096098;28;20442;-68
2021/12/31 00:21:07;;;;;;;6.00;5.30;;;;;;;;;;5095525;28;20516;-68
2021/12/31 00:23:35;;;;;;;9.60;4.90;;;;;;;;;;5095447;28;20474;-67
2021/12/31 00:26:02;;;;;;;9.70;4.80;;;;;;;;;;5095471;28;20929;-67
2021/12/31 00:28:29;;;;;;;9.57;4.33;;;;;;;;;;5095892;28;20532;-68
2021/12/31 00:30:58;;;;;;;5.10;4.60;;;;;;;;;;5095827;28;20519;-68
2021/12/31 00:33:25;;;;;;;4.80;4.03;;;;;;;;;;5095460;28;20947;-68
2021/12/31 00:35:53;;;;;;;3.97;3.20;;;;;;;;;;5095475;28;20494;-67
2021/12/31 00:38:20;;;;;;;6.13;4.80;;;;;;;;;;5095161;28;20546;-67
2021/12/31 00:40:47;;;;;;;10.70;4.20;;;;;;;;;;5095704;28;20476;-68
2021/12/31 00:43:15;;;;;;;9.63;4.87;;;;;;;;;;5095088;28;20545;-68
2021/12/31 00:45:43;;;;;;;7.30;4.67;;;;;;;;;;5095508;28;20525;-68
2021/12/31 00:48:13;;;;;;;4.10;3.80;;;;;;;;;;5095299;28;20458;-68
2021/12/31 00:50:40;;;;;;;5.90;3.50;;;;;;;;;;5095409;28;20958;-69
2021/12/31 00:53:08;;;;;;;5.10;3.93;;;;;;;;;;5095532;28;20437;-68
2021/12/31 00:55:35;;;;;;;8.67;4.53;;;;;;;;;;5095526;28;20547;-67
2021/12/31 00:58:03;;;;;;;5.67;4.67;;;;;;;;;;5095150;28;20477;-69
2021/12/31 01:00:30;;;;;;;5.27;4.73;;;;;;;;;;5095456;28;20481;-68
2021/12/31 01:02:58;;;;;;;6.20;4.90;;;;;;;;;;5094977;28;20528;-68
2021/12/31 01:05:26;;;;;;;7.87;4.23;;;;;;;;;;5094637;28;20944;-67
2021/12/31 01:07:54;;;;;;;8.00;4.03;;;;;;;;;;5095042;28;20538;-68
2021/12/31 01:10:23;;;;;;;7.77;4.70;;;;;;;;;;5094832;28;20541;-68
2021/12/31 01:12:51;;;;;;;7.93;4.67;;;;;;;;;;5094589;28;20453;-68
2021/12/31 01:15:23;;;;;;;10.47;4.30;;;;;;;;;;5094829;28;20445;-68
2021/12/31 01:20:37;;;;;;;10.07;4.87;;;;;;;;;;5094708;28;20945;-68
2021/12/31 01:23:04;;;;;;;6.40;4.13;;;;;;;;;;5095263;28;20840;-68
2021/12/31 01:25:31;;;;;;;21.37;4.00;;;;;;;;;;5094796;28;20541;-68
2021/12/31 01:27:59;;;;;;;7.80;3.50;;;;;;;;;;5094218;28;21007;-69
2021/12/31 01:30:27;;;;;;;4.37;3.20;;;;;;;;;;5095055;28;20487;-68
2021/12/31 01:32:55;;;;;;;10.00;3.70;;;;;;;;;;5094137;28;20536;-69
2021/12/31 01:35:22;;;;;;;5.30;3.40;;;;;;;;;;5094063;28;20452;-68
2021/12/31 01:37:51;;;;;;;6.10;3.87;;;;;;;;;;5094074;28;20535;-68
2021/12/31 01:40:18;;;;;;;6.73;3.30;;;;;;;;;;5094417;28;20509;-68
2021/12/31 01:42:45;;;;;;;12.73;3.57;;;;;;;;;;5093971;28;20477;-69
2021/12/31 01:45:16;;;;;;;4.97;3.80;;;;;;;;;;5093818;28;20636;-68
2021/12/31 01:47:58;;;;;;;7.33;4.20;;;;;;;;;;5093912;28;20445;-68
2021/12/31 01:50:26;;;;;;;5.30;3.30;;;;;;;;;;5093888;28;20433;-68
2021/12/31 01:52:55;;;;;;;5.33;3.80;;;;;;;;;;5093818;28;20480;-68
2021/12/31 01:55:23;;;;;;;6.10;3.23;;;;;;;;;;5093703;28;20453;-69
2021/12/31 01:57:50;;;;;;;7.20;3.40;;;;;;;;;;5093691;28;20445;-69
2021/12/31 02:00:18;;;;;;;8.20;4.03;;;;;;;;;;5093590;28;20975;-70
2021/12/31 02:02:46;;;;;;;5.60;3.90;;;;;;;;;;5094023;28;20528;-68
2021/12/31 02:05:13;;;;;;;7.20;3.60;;;;;;;;;;5093523;28;20533;-68
2021/12/31 02:07:41;;;;;;;4.77;3.37;;;;;;;;;;5093548;28;20994;-68
2021/12/31 02:10:10;;;;;;;5.57;3.00;;;;;;;;;;5094087;28;20450;-68
2021/12/31 02:12:40;;;;;;;10.70;3.40;;;;;;;;;;5093798;28;20445;-68
2021/12/31 02:15:08;;;;;;;6.87;3.33;;;;;;;;;;5093906;28;20533;-68
2021/12/31 02:17:35;;;;;;;3.33;3.03;;;;;;;;;;5093360;28;20830;-68
2021/12/31 02:20:05;;;;;;;4.57;3.17;;;;;;;;;;5092793;28;20481;-69
2021/12/31 02:22:33;;;;;;;11.83;5.00;;;;;;;;;;5093648;28;20436;-68
2021/12/31 02:25:01;;;;;;;4.57;3.10;;;;;;;;;;5093733;28;20452;-68
2021/12/31 02:27:29;;;;;;;4.57;3.20;;;;;;;;;;5093300;28;20438;-68
2021/12/31 02:29:56;;;;;;;3.67;2.40;;;;;;;;;;5093493;28;20537;-67
2021/12/31 02:32:23;;;;;;;4.13;2.60;;;;;;;;;;5094239;28;20441;-68
2021/12/31 02:34:51;;;;;;;2.67;2.47;;;;;;;;;;5093719;28;20451;-68
2021/12/31 02:37:20;;;;;;;9.10;3.03;;;;;;;;;;5093501;28;20533;-67
2021/12/31 02:39:47;;;;;;;3.57;2.73;;;;;;;;;;5093541;28;20569;-67
2021/12/31 02:42:14;;;;;;;5.70;2.80;;;;;;;;;;5093443;28;20475;-67
2021/12/31 02:44:42;;;;;;;5.77;2.67;;;;;;;;;;5093883;28;20452;-67
2021/12/31 02:47:10;;;;;;;3.77;2.47;;;;;;;;;;5093138;28;20449;-67
2021/12/31 02:49:41;;;;;;;3.13;2.10;;;;;;;;;;5093100;28;20499;-67
2021/12/31 02:52:11;;;;;;;5.40;2.33;;;;;;;;;;5093693;28;20490;-67
2021/12/31 02:54:42;;;;;;;2.67;2.47;;;;;;;;;;5093342;28;20858;-66
2021/12/31 02:57:09;;;;;;;2.93;2.17;;;;;;;;;;5093630;28;20521;-67
2021/12/31 02:59:37;;;;;;;12.20;3.20;;;;;;;;;;5093587;28;20856;-67
2021/12/31 03:02:06;;;;;;;4.87;2.57;;;;;;;;;;5093266;28;20518;-67
2021/12/31 03:04:35;;;;;;;3.60;2.50;;;;;;;;;;5093156;28;20446;-67
2021/12/31 03:07:03;;;;;;;6.90;2.60;;;;;;;;;;5093218;28;20433;-66
2021/12/31 03:09:31;;;;;;;4.97;2.13;;;;;;;;;;5093222;28;20853;-67
2021/12/31 03:12:00;;;;;;;2.60;2.40;;;;;;;;;;5093223;28;20533;-66
2021/12/31 03:14:27;;;;;;;4.47;2.50;;;;;;;;;;5093394;28;20871;-66
2021/12/31 03:16:54;;;;;;;2.90;2.07;;;;;;;;;;5093291;28;20552;-66
2021/12/31 03:19:22;;;;;;;3.57;2.10;;;;;;;;;;5092814;28;20478;-67
2021/12/31 03:21:49;;;;;;;2.90;2.53;;;;;;;;;;5092709;28;20493;-67
2021/12/31 03:24:16;;;;;;;2.93;2.63;;;;;;;;;;5092771;28;20532;-67
2021/12/31 03:26:44;;;;;;;5.80;3.03;;;;;;;;;;5092730;28;20471;-67
2021/12/31 03:29:13;;;;;;;4.10;2.57;;;;;;;;;;5093107;28;20850;-67
2021/12/31 03:31:40;;;;;;;4.33;2.20;;;;;;;;;;5096702;28;20780;-67
2021/12/31 03:34:08;;;;;;;2.43;2.23;;;;;;;;;;5096896;28;20523;-66
2021/12/31 03:36:35;;;;;;;7.23;2.63;;;;;;;;;;5096707;28;20448;-66
2021/12/31 03:39:02;;;;;;;3.17;2.17;;;;;;;;;;5096385;28;21000;-66
2021/12/31 03:41:29;;;;;;;3.23;2.60;;;;;;;;;;5096651;28;20572;-67
2021/12/31 03:43:57;;;;;;;3.20;2.60;;;;;;;;;;5096186;28;20459;-69
2021/12/31 03:46:25;;;;;;;3.70;2.33;;;;;;;;;;5096193;28;20480;-68
2021/12/31 03:48:53;;;;;;;5.03;2.40;;;;;;;;;;5096717;28;20526;-68
2021/12/31 03:51:20;;;;;;;3.33;2.83;;;;;;;;;;5096155;28;20442;-67
2021/12/31 03:53:47;;;;;;;3.27;2.50;;;;;;;;;;5096372;28;20533;-67
2021/12/31 03:56:14;;;;;;;3.53;3.23;;;;;;;;;;5096338;28;20525;-68
2021/12/31 03:58:41;;;;;;;7.33;2.83;;;;;;;;;;5095954;28;21002;-68
2021/12/31 04:01:09;;;;;;;3.53;1.93;;;;;;;;;;5095898;28;21086;-68
2021/12/31 04:03:37;;;;;;;4.10;2.27;;;;;;;;;;5096214;28;20440;-67
2021/12/31 04:06:04;;;;;;;11.53;2.30;;;;;;;;;;5096118;28;20528;-68
2021/12/31 04:08:32;;;;;;;5.83;2.40;;;;;;;;;;5096098;28;20536;-69
2021/12/31 04:10:59;;;;;;;2.93;2.53;;;;;;;;;;5096522;28;20482;-68
2021/12/31 04:13:26;;;;;;;3.20;2.10;;;;;;;;;;5096031;28;20791;-68
2021/12/31 04:15:53;;;;;;;3.37;2.70;;;;;;;;;;5095529;28;20532;-67
2021/12/31 04:18:22;;;;;;;2.57;2.37;;;;;;;;;;5095990;28;20454;-68
2021/12/31 04:20:55;;;;;;;5.00;4.50;;;;;;;;;;5095834;28;20491;-67
2021/12/31 04:23:28;;;;;;;4.70;2.47;;;;;;;;;;5095966;28;20488;-67
2021/12/31 04:25:56;;;;;;;2.97;2.20;;;;;;;;;;5095503;28;20459;-67
2021/12/31 04:28:23;;;;;;;3.73;2.53;;;;;;;;;;5095872;28;20861;-67
2021/12/31 04:30:50;;;;;;;3.87;2.63;;;;;;;;;;5095676;28;20447;-67
2021/12/31 04:33:17;;;;;;;3.40;2.23;;;;;;;;;;5095632;28;20533;-68
2021/12/31 04:35:45;;;;;;;5.40;2.87;;;;;;;;;;5095688;28;20525;-67
2021/12/31 04:38:13;;;;;;;3.03;2.67;;;;;;;;;;5095624;28;20871;-67
2021/12/31 04:40:41;;;;;;;6.20;2.57;;;;;;;;;;5095472;28;20478;-67
2021/12/31 04:43:08;;;;;;;4.87;2.73;;;;;;;;;;5094534;28;20525;-67
2021/12/31 04:45:35;;;;;;;5.57;2.60;;;;;;;;;;5096160;28;20515;-68
2021/12/31 04:48:03;;;;;;;3.20;2.17;;;;;;;;;;5095460;28;20524;-69
2021/12/31 04:50:30;;;;;;;3.40;2.23;;;;;;;;;;5094917;28;20511;-67
2021/12/31 04:52:58;;;;;;;4.70;2.60;;;;;;;;;;5095557;28;20533;-68
2021/12/31 04:55:27;;;;;;;3.50;2.40;;;;;;;;;;5095783;28;20445;-68
2021/12/31 04:57:54;;;;;;;2.57;2.37;;;;;;;;;;5095218;28;20438;-67
2021/12/31 05:00:21;;;;;;;2.67;2.37;;;;;;;;;;5094719;28;20474;-67
2021/12/31 05:02:48;;;;;;;7.20;3.13;;;;;;;;;;5095078;28;20532;-68
2021/12/31 05:05:15;;;;;;;4.57;2.40;;;;;;;;;;5095272;28;20862;-67
2021/12/31 05:07:43;;;;;;;4.70;2.57;;;;;;;;;;5094680;28;20955;-68
2021/12/31 05:10:10;;;;;;;4.63;2.53;;;;;;;;;;5094575;28;21018;-67
2021/12/31 05:12:39;;;;;;;3.03;2.77;;;;;;;;;;5094505;28;20929;-67
2021/12/31 05:15:08;;;;;;;3.03;2.80;;;;;;;;;;5094481;28;20941;-68
2021/12/31 05:17:36;;;;;;;8.17;3.20;;;;;;;;;;5095419;28;20471;-67
2021/12/31 05:20:03;;;;;;;4.03;2.80;;;;;;;;;;5094996;28;20533;-69
2021/12/31 05:22:31;;;;;;;4.73;3.73;;;;;;;;;;5094955;28;20540;-68
2021/12/31 05:24:58;;;;;;;2.87;2.13;;;;;;;;;;5094677;28;20522;-67
2021/12/31 05:27:25;;;;;;;6.20;3.20;;;;;;;;;;5094302;28;20529;-67
2021/12/31 05:29:54;;;;;;;4.27;2.60;;;;;;;;;;5094968;28;20528;-67
2021/12/31 05:32:21;;;;;;;5.53;2.40;;;;;;;;;;5094811;28;20551;-67
2021/12/31 05:34:48;;;;;;;8.93;3.43;;;;;;;;;;5094135;28;20534;-67
2021/12/31 05:37:15;;;;;;;3.90;3.10;;;;;;;;;;5093530;28;20871;-66
2021/12/31 05:39:44;;;;;;;6.30;3.10;;;;;;;;;;5094412;28;20474;-66
2021/12/31 05:42:11;;;;;;;3.90;2.57;;;;;;;;;;5094172;28;20508;-66
2021/12/31 05:44:38;;;;;;;5.00;2.53;;;;;;;;;;5093829;28;20545;-66
2021/12/31 05:47:07;;;;;;;4.90;2.80;;;;;;;;;;5095074;28;20535;-66
2021/12/31 05:49:35;;;;;;;2.80;2.60;;;;;;;;;;5094242;28;20524;-66
2021/12/31 05:52:02;;;;;;;4.77;2.90;;;;;;;;;;5094408;28;20474;-67
2021/12/31 05:54:29;;;;;;;5.80;3.00;;;;;;;;;;5094029;28;20534;-67
2021/12/31 05:56:56;;;;;;;4.50;2.87;;;;;;;;;;5093656;28;20442;-67
2021/12/31 05:59:24;;;;;;;3.93;3.07;;;;;;;;;;5094484;28;20436;-67
2021/12/31 06:01:51;;;;;;;6.60;3.07;;;;;;;;;;5094434;28;20479;-67
2021/12/31 06:04:20;;;;;;;8.27;3.70;;;;;;;;;;5094301;28;20525;-67
2021/12/31 06:06:47;;;;;;;3.90;3.07;;;;;;;;;;5093458;28;20536;-66
2021/12/31 06:09:14;;;;;;;4.70;2.73;;;;;;;;;;5093901;28;20513;-66
2021/12/31 06:11:42;;;;;;;5.47;3.80;;;;;;;;;;5093583;28;20541;-66
2021/12/31 06:14:09;;;;;;;6.87;3.60;;;;;;;;;;5094366;28;20548;-66
2021/12/31 06:16:41;;;;;;;5.30;2.77;;;;;;;;;;5093550;28;20511;-68
2021/12/31 06:19:09;;;;;;;7.67;3.13;;;;;;;;;;5093565;28;21071;-66
2021/12/31 06:21:37;;;;;;;3.30;2.90;;;;;;;;;;5093912;28;20563;-65
2021/12/31 06:24:05;;;;;;;7.83;3.23;;;;;;;;;;5093661;28;20448;-65
2021/12/31 06:26:32;;;;;;;3.23;3.03;;;;;;;;;;5093660;28;20476;-65
2021/12/31 06:29:00;;;;;;;5.83;3.67;;;;;;;;;;5093345;28;20478;-65
2021/12/31 06:31:27;;;;;;;4.83;2.77;;;;;;;;;;5093616;28;20537;-66
2021/12/31 06:33:54;;;;;;;4.87;3.77;;;;;;;;;;5093655;28;20515;-67
2021/12/31 06:36:22;;;;;;;4.23;3.23;;;;;;;;;;5093596;28;20444;-67
2021/12/31 06:38:51;;;;;;;4.70;3.00;;;;;;;;;;5093374;28;20528;-67
2021/12/31 06:41:20;;;;;;;5.57;3.10;;;;;;;;;;5093160;28;20473;-66
2021/12/31 06:43:47;;;;;;;5.90;2.90;;;;;;;;;;5093356;28;20745;-67
2021/12/31 06:46:14;;;;;;;7.50;2.90;;;;;;;;;;5094309;28;20436;-66
2021/12/31 06:48:41;;;;;;;3.60;2.97;;;;;;;;;;5093691;28;20447;-67
2021/12/31 06:51:09;;;;;;;5.47;2.87;;;;;;;;;;5093342;28;20451;-66
2021/12/31 06:53:36;;;;;;;3.70;3.30;;;;;;;;;;5093304;28;20791;-67
2021/12/31 06:56:05;;;;;;;4.10;2.80;;;;;;;;;;5092925;28;20859;-67
2021/12/31 06:58:33;;;;;;;3.27;2.97;;;;;;;;;;5093321;28;20532;-67
2021/12/31 07:01:00;;;;;;;3.63;3.00;;;;;;;;;;5093228;28;20508;-67
2021/12/31 07:03:27;;;;;;;2.97;2.50;;;;;;;;;;5092976;28;20442;-67
2021/12/31 07:05:54;;;;;;;3.30;3.00;;;;;;;;;;5095083;28;20532;-67
2021/12/31 07:08:21;;;;;;;3.60;3.30;;;;;;;;;;5096899;28;20533;-66
2021/12/31 07:10:49;;;;;;;3.50;3.10;;;;;;;;;;5096882;28;20441;-67
2021/12/31 07:13:17;;;;;;;4.50;2.93;;;;;;;;;;5097953;28;20530;-66
2021/12/31 07:15:48;;;;;;;4.53;2.90;;;;;;;;;;5097229;28;20525;-66
2021/12/31 07:18:15;;;;;;;4.17;3.60;;;;;;;;;;5097669;28;20484;-67
2021/12/31 07:20:43;;;;;;;3.10;2.67;;;;;;;;;;5096651;28;20452;-67
2021/12/31 07:23:11;;;;;;;2.87;2.67;;;;;;;;;;5096612;28;20549;-66
2021/12/31 07:25:39;;;;;;;4.40;2.97;;;;;;;;;;5096683;28;21061;-66
2021/12/31 07:28:07;;;;;;;2.97;2.53;;;;;;;;;;5097195;28;20498;-66
2021/12/31 07:30:36;;;;;;;3.23;2.60;;;;;;;;;;5096832;28;20519;-66
2021/12/31 07:33:03;;;;;;;4.50;4.10;;;;;;;;;;5096902;28;20444;-66
2021/12/31 07:35:31;;;;;;;3.43;2.43;;;;;;;;;;5096432;28;20477;-66
2021/12/31 07:38:00;;;;;;;5.03;2.63;;;;;;;;;;5096773;28;20468;-66
2021/12/31 07:40:37;;;;;;;3.00;2.70;;;;;;;;;;5096613;28;20449;-66
2021/12/31 07:43:05;;;;;;;5.67;3.07;;;;;;;;;;5096567;28;20534;-66
2021/12/31 07:45:32;;;;;;;2.60;2.33;;;;;;;;;;5096304;28;20986;-66
2021/12/31 07:48:00;;;;;;;4.10;2.80;;;;;;;;;;5096529;28;20480;-66
2021/12/31 07:50:28;;;;;;;3.70;3.10;;;;;;;;;;5096330;28;20486;-66
2021/12/31 07:52:55;;;;;;;3.67;2.83;;;;;;;;;;5096397;28;20579;-66
2021/12/31 07:55:22;;;;;;;5.70;3.70;;;;;;;;;;5095849;28;20525;-66
2021/12/31 07:57:49;;;;;;;12.43;3.23;;;;;;;;;;5096096;28;20450;-66
2021/12/31 08:00:17;;;;;;;8.53;3.00;;;;;;;;;;5096254;28;20440;-66
2021/12/31 08:02:44;;;;;;;3.17;2.60;;;;;;;;;;5096959;28;20587;-66
2021/12/31 08:05:13;;;;;;;3.70;2.77;;;;;;;;;;5095916;28;20484;-66
2021/12/31 08:07:40;;;;;;;2.90;2.30;;;;;;;;;;5095794;28;20533;-66
2021/12/31 08:10:08;;;;;;;3.60;2.60;;;;;;;;;;5096077;28;20468;-66
2021/12/31 08:12:36;;;;;;;3.10;2.80;;;;;;;;;;5095743;28;20476;-66
2021/12/31 08:15:03;;;;;;;3.90;2.30;;;;;;;;;;5096292;28;20454;-66
2021/12/31 08:17:30;;;;;;;3.93;2.73;;;;;;;;;;5095031;28;20556;-67
2021/12/31 08:19:58;;;;;;;8.40;3.03;;;;;;;;;;5095909;28;20542;-66
2021/12/31 08:22:26;;;;;;;2.80;2.60;;;;;;;;;;5095950;28;20569;-67
2021/12/31 08:24:54;;;;;;;4.23;2.40;;;;;;;;;;5096279;28;20438;-67
2021/12/31 08:27:21;;;;;;;3.83;2.63;;;;;;;;;;5095790;28;20525;-66
2021/12/31 08:29:48;;;;;;;3.03;2.53;;;;;;;;;;5095374;28;20532;-66
2021/12/31 08:32:15;;;;;;;5.10;2.97;;;;;;;;;;5095581;28;20528;-67
2021/12/31 08:34:42;;;;;;;3.43;2.60;;;;;;;;;;5095667;28;20442;-67
2021/12/31 08:37:10;;;;;;;4.70;2.60;;;;;;;;;;5095224;28;20536;-66
2021/12/31 08:39:39;;;;;;;5.20;2.57;;;;;;;;;;5095863;28;20474;-66
2021/12/31 08:42:06;;;;;;;2.97;2.77;;;;;;;;;;5095039;28;20552;-66
2021/12/31 08:44:34;;;;;;;6.37;3.03;;;;;;;;;;5095791;28;20539;-67
2021/12/31 08:47:01;;;;;;;5.43;2.47;;;;;;;;;;5095393;28;20451;-67
2021/12/31 08:49:28;;;;;;;4.17;2.87;;;;;;;;;;5095121;28;21035;-66
2021/12/31 08:51:55;;;;;;;6.93;3.17;;;;;;;;;;5095224;28;20470;-67
2021/12/31 08:54:23;;;;;;;4.70;2.80;;;;;;;;;;5095092;28;20923;-68
2021/12/31 08:56:51;;;;;;;3.37;2.97;;;;;;;;;;5095172;28;20481;-68
2021/12/31 08:59:19;;;;;;;2.87;2.67;;;;;;;;;;5094164;28;20441;-67
2021/12/31 09:01:46;;;;;;;4.93;3.07;;;;;;;;;;5095188;28;20481;-67
2021/12/31 09:04:14;;;;;;;6.50;2.77;;;;;;;;;;5095155;28;20859;-67
2021/12/31 09:06:41;;;;;;;2.83;2.50;;;;;;;;;;5095105;28;20529;-67
2021/12/31 09:09:08;;;;;;;5.40;2.60;;;;;;;;;;5094615;28;20507;-67
2021/12/31 09:11:36;;;;;;;3.83;2.20;;;;;;;;;;5094948;28;20864;-67
2021/12/31 09:14:04;;;;;;;4.93;2.47;;;;;;;;;;5094882;28;20449;-67
2021/12/31 09:16:31;;;;;;;3.93;2.50;;;;;;;;;;5094616;28;20553;-68
2021/12/31 09:18:59;;;;;;;3.60;3.13;;;;;;;;;;5094792;28;20862;-67
2021/12/31 09:21:26;;;;;;;2.70;2.50;;;;;;;;;;5094701;28;20854;-67
2021/12/31 09:23:53;;;;;;;3.53;2.53;;;;;;;;;;5094926;28;20532;-67
2021/12/31 09:26:20;;;;;;;3.93;2.60;;;;;;;;;;5094627;28;20537;-68
2021/12/31 09:28:48;;;;;;;7.10;3.27;;;;;;;;;;5094457;28;20948;-68
2021/12/31 09:31:16;;;;;;;5.13;2.87;;;;;;;;;;5094761;28;20528;-67
2021/12/31 09:33:44;;;;;;;3.93;2.77;;;;;;;;;;5094209;28;20548;-67
2021/12/31 09:36:11;;;;;;;4.73;3.27;;;;;;;;;;5094124;28;20487;-67
2021/12/31 09:38:38;;;;;;;3.40;2.60;;;;;;;;;;5094355;28;20853;-68
2021/12/31 09:41:05;;;;;;;2.67;2.47;;;;;;;;;;5093929;28;20444;-67
2021/12/31 09:43:33;;;;;;;3.30;2.50;;;;;;;;;;5094038;28;20581;-67
2021/12/31 09:46:00;;;;;;;2.70;2.50;;;;;;;;;;5093919;28;20439;-67
2021/12/31 09:48:29;;;;;;;3.07;2.13;;;;;;;;;;5093791;28;20506;-67
2021/12/31 09:50:59;;;;;;;3.37;3.10;;;;;;;;;;5094124;28;20850;-71
2021/12/31 09:53:31;;;;;;;4.77;2.50;;;;;;;;;;5094082;28;20448;-64
2021/12/31 09:55:58;;;;;;;2.57;2.37;;;;;;;;;;5094057;28;20462;-64
2021/12/31 09:58:26;;;;;;;3.60;3.17;;;;;;;;;;5093694;28;20481;-64
2021/12/31 10:00:54;;;;;;;5.23;2.60;;;;;;;;;;5093572;28;20536;-71
2021/12/31 10:03:25;;;;;;;4.80;2.57;;;;;;;;;;5093442;28;20512;-65
2021/12/31 10:05:54;;;;;;;3.90;2.90;;;;;;;;;;5093612;28;20429;-64
2021/12/31 10:08:22;;;;;;;2.50;2.30;;;;;;;;;;5093977;28;20441;-65
2021/12/31 10:11:06;;;;;;;6.67;2.60;;;;;;;;;;5093625;28;21013;-65
2021/12/31 10:13:34;;;;;;;2.70;2.50;;;;;;;;;;5093966;28;20525;-66
2021/12/31 10:16:01;;;;;;;4.27;2.43;;;;;;;;;;5093152;28;20476;-65
2021/12/31 10:18:32;;;;;;;3.03;2.73;;;;;;;;;;5094074;28;20798;-65
2021/12/31 10:21:00;;;;;;;2.53;2.33;;;;;;;;;;5093414;28;20532;-65
2021/12/31 10:23:28;;;;;;;5.87;3.00;;;;;;;;;;5093854;28;20553;-64
2021/12/31 10:26:08;;;;;;;3.60;2.97;;;;;;;;;;5093643;28;20491;-64
2021/12/31 10:28:36;;;;;;;2.03;1.93;;;;;;;;;;5093634;28;20445;-65
2021/12/31 10:31:13;;;;;;;3.63;2.47;;;;;;;;;;5093268;28;20532;-65
2021/12/31 10:33:44;;;;;;;3.33;2.57;;;;;;;;;;5094016;28;20488;-65
2021/12/31 10:36:31;;;;;;;5.63;3.63;;;;;;;;;;5093499;28;20523;-65
2021/12/31 10:38:59;;;;;;;3.27;2.97;;;;;;;;;;5092741;28;20524;-65
2021/12/31 10:41:27;;;;;;;2.50;2.30;;;;;;;;;;5092320;28;20538;-66
2021/12/31 10:43:58;;;;;;;3.50;3.13;;;;;;;;;;5093451;28;20983;-65
2021/12/31 10:46:25;;;;;;;3.13;2.50;;;;;;;;;;5093355;28;20438;-65
2021/12/31 10:48:54;;;;;;;2.90;2.70;;;;;;;;;;5093018;28;20981;-65
2021/12/31 10:51:36;;;;;;;2.97;2.67;;;;;;;;;;5093106;28;20536;-65
2021/12/31 10:54:17;;;;;;;3.50;2.87;;;;;;;;;;5094092;28;20517;-65
2021/12/31 10:56:44;;;;;;;3.70;2.80;;;;;;;;;;5093720;28;20868;-64
2021/12/31 10:59:11;;;;;;;2.50;2.30;;;;;;;;;;5093221;28;20529;-66
2021/12/31 11:01:38;;;;;;;3.37;2.90;;;;;;;;;;5093309;28;20988;-65
2021/12/31 11:04:06;;;;;;;6.40;2.70;;;;;;;;;;5093229;28;20905;-64
2021/12/31 11:06:34;;;;;;;2.90;2.53;;;;;;;;;;5093255;28;20525;-65
2021/12/31 11:09:06;;;;;;;7.50;3.00;;;;;;;;;;5093200;28;20463;-65
2021/12/31 11:11:33;;;;;;;2.40;2.20;;;;;;;;;;5093475;28;20478;-64
2021/12/31 11:14:02;;;;;;;5.87;2.70;;;;;;;;;;5092894;28;20983;-64
2021/12/31 11:16:29;;;;;;;2.97;2.57;;;;;;;;;;5093055;28;20483;-64
2021/12/31 11:18:57;;;;;;;2.60;2.40;;;;;;;;;;5093134;28;20908;-64
2021/12/31 11:21:24;;;;;;;5.57;2.57;;;;;;;;;;5092765;28;20446;-65
2021/12/31 11:23:53;;;;;;;3.63;2.83;;;;;;;;;;5093006;28;20579;-66
2021/12/31 11:26:28;;;;;;;3.43;2.70;;;;;;;;;;5093050;28;20531;-66
2021/12/31 11:28:56;;;;;;;7.27;3.50;;;;;;;;;;5093015;28;20511;-65
2021/12/31 11:31:27;;;;;;;2.03;1.93;;;;;;;;;;5092550;28;20452;-65
2021/12/31 11:34:13;;;;;;;4.90;2.83;;;;;;;;;;5093243;28;20430;-66
2021/12/31 11:36:41;;;;;;;3.30;3.00;;;;;;;;;;5092597;28;20490;-66
2021/12/31 11:39:15;;;;;;;2.97;2.77;;;;;;;;;;5092786;28;20523;-66
2021/12/31 11:41:43;;;;;;;5.20;3.17;;;;;;;;;;5093215;28;20855;-66
2021/12/31 11:44:11;;;;;;;2.83;2.63;;;;;;;;;;5092628;28;20591;-65
2021/12/31 11:46:40;;;;;;;4.23;2.43;;;;;;;;;;5093026;28;20441;-64
2021/12/31 11:49:12;;;;;;;4.20;3.50;;;;;;;;;;5092752;28;20442;-64
2021/12/31 11:51:57;;;;;;;4.70;2.97;;;;;;;;;;5093985;28;20487;-64
2021/12/31 11:54:26;;;;;;;3.20;2.77;;;;;;;;;;5096723;28;20440;-64
2021/12/31 11:57:09;;;;;;;5.13;3.07;;;;;;;;;;5095982;28;20446;-65
2021/12/31 11:59:45;;;;;;;5.50;2.20;;;;;;;;;;5096603;28;20520;-65
2021/12/31 12:02:15;;;;;;;3.07;2.57;;;;;;;;;;5095985;28;20519;-65
2021/12/31 12:04:44;;;;;;;4.20;2.80;;;;;;;;;;5096177;28;20799;-64
2021/12/31 12:07:13;;;;;;;5.07;3.20;;;;;;;;;;5095801;28;20939;-64
2021/12/31 12:09:58;;;;;;;5.40;2.57;;;;;;;;;;5095785;28;20445;-64
2021/12/31 12:12:28;;;;;;;7.03;3.10;;;;;;;;;;5096033;28;20476;-65
2021/12/31 12:14:56;;;;;;;3.30;3.10;;;;;;;;;;5096193;28;20446;-65
2021/12/31 12:17:39;;;;;;;3.00;2.70;;;;;;;;;;5095834;28;20557;-65
2021/12/31 12:20:10;;;;;;;3.20;2.90;;;;;;;;;;5095289;28;20427;-65
2021/12/31 12:22:38;;;;;;;4.93;3.10;;;;;;;;;;5096110;28;20441;-65
2021/12/31 12:25:06;;;;;;;7.00;3.37;;;;;;;;;;5095367;28;20528;-65
2021/12/31 12:27:35;;;;;;;4.50;3.10;;;;;;;;;;5095775;28;20532;-65
2021/12/31 12:30:04;;;;;;;3.03;2.83;;;;;;;;;;5095516;28;21012;-65
2021/12/31 12:32:35;;;;;;;5.23;3.17;;;;;;;;;;5095305;28;20472;-64
2021/12/31 12:35:16;;;;;;;3.40;3.10;;;;;;;;;;5096445;28;20508;-65
2021/12/31 12:37:43;;;;;;;3.50;3.20;;;;;;;;;;5095715;28;20771;-66
2021/12/31 12:40:13;;;;;;;3.77;2.80;;;;;;;;;;5094687;28;20499;-65
2021/12/31 12:42:50;;;;;;;4.97;3.13;;;;;;;;;;5094593;28;20528;-65
2021/12/31 12:45:17;;;;;;;3.73;3.10;;;;;;;;;;5095323;28;20460;-65
2021/12/31 12:47:58;;;;;;;3.07;2.77;;;;;;;;;;5095085;28;20438;-65
2021/12/31 12:50:25;;;;;;;3.77;2.93;;;;;;;;;;5096186;28;20512;-65
2021/12/31 12:52:56;;;;;;;3.23;2.70;;;;;;;;;;5095267;28;20488;-65
2021/12/31 12:55:30;;;;;;;3.90;2.53;;;;;;;;;;5095197;28;20875;-65
2021/12/31 12:58:00;;;;;;;3.43;2.73;;;;;;;;;;5095774;28;20422;-65
2021/12/31 13:00:35;;;;;;;3.10;2.80;;;;;;;;;;5095300;28;20860;-65
2021/12/31 13:03:05;;;;;;;2.90;2.53;;;;;;;;;;5094242;28;20538;-65
2021/12/31 13:05:33;;;;;;;7.07;3.10;;;;;;;;;;5094700;28;20449;-64
2021/12/31 13:08:00;;;;;;;2.87;2.67;;;;;;;;;;5094930;28;20863;-65
2021/12/31 13:10:28;;;;;;;2.50;2.30;;;;;;;;;;5095212;28;20529;-64
2021/12/31 13:12:56;;;;;;;2.90;2.60;;;;;;;;;;5094449;28;20519;-65
2021/12/31 13:15:24;;;;;;;6.60;2.87;;;;;;;;;;5094820;28;20437;-65
2021/12/31 13:17:58;;;;;;;2.80;2.60;;;;;;;;;;5095155;28;20568;-65
2021/12/31 13:20:27;;;;;;;2.67;2.30;;;;;;;;;;5094801;28;20451;-65
2021/12/31 13:22:56;;;;;;;3.37;2.90;;;;;;;;;;5094275;28;20956;-65
2021/12/31 13:25:37;;;;;;;3.17;2.87;;;;;;;;;;5094344;28;20516;-66
2021/12/31 13:28:12;;;;;;;3.80;2.30;;;;;;;;;;5094603;28;20425;-66
2021/12/31 13:30:50;;;;;;;4.57;2.37;;;;;;;;;;5094229;28;20446;-65
2021/12/31 13:33:25;;;;;;;3.00;2.70;;;;;;;;;;5094794;28;20439;-65
2021/12/31 13:36:07;;;;;;;4.77;2.50;;;;;;;;;;5094024;28;20476;-65
2021/12/31 13:38:57;;;;;;;2.87;2.67;;;;;;;;;;5077911;28;20533;-65
2021/12/31 13:41:25;;;;;;;3.27;2.87;;;;;;;;;;5094344;28;20448;-65
2021/12/31 13:43:53;;;;;;;2.97;2.53;;;;;;;;;;5093759;28;20575;-65
2021/12/31 13:46:27;;;;;;;4.83;3.17;;;;;;;;;;5094222;28;20449;-65
2021/12/31 13:49:01;;;;;;;3.17;2.60;;;;;;;;;;5094190;28;20866;-65
2021/12/31 13:51:30;;;;;;;3.47;2.70;;;;;;;;;;5094761;28;20430;-65
2021/12/31 13:53:57;;;;;;;3.50;2.93;;;;;;;;;;5093901;28;20451;-65
2021/12/31 13:56:32;;;;;;;3.90;2.10;;;;;;;;;;5093796;28;20636;-66
2021/12/31 13:58:59;;;;;;;3.83;2.63;;;;;;;;;;5093640;28;20520;-65
2021/12/31 14:01:28;;;;;;;3.53;2.73;;;;;;;;;;5093860;28;20480;-65
2021/12/31 14:04:10;;;;;;;3.50;3.20;;;;;;;;;;5093468;28;20515;-65
2021/12/31 14:06:39;;;;;;;7.03;2.70;;;;;;;;;;5094463;28;20501;-64
2021/12/31 14:09:07;;;;;;;3.90;2.43;;;;;;;;;;5093479;28;20485;-64
2021/12/31 14:11:34;;;;;;;2.70;2.47;;;;;;;;;;5093793;28;20440;-64
2021/12/31 14:14:01;;;;;;;3.20;2.60;;;;;;;;;;5093664;28;20541;-64
2021/12/31 14:16:30;;;;;;;3.93;2.70;;;;;;;;;;5092737;28;20552;-64
2021/12/31 14:18:57;;;;;;;2.10;2.00;;;;;;;;;;5093531;28;20470;-65
2021/12/31 14:21:26;;;;;;;3.40;2.13;;;;;;;;;;5093457;28;20438;-64
2021/12/31 14:23:53;;;;;;;3.03;2.40;;;;;;;;;;5093237;28;20560;-64
2021/12/31 14:26:20;;;;;;;3.17;2.63;;;;;;;;;;5093700;28;20488;-64
2021/12/31 14:28:47;;;;;;;4.70;2.50;;;;;;;;;;5093302;28;20473;-65
2021/12/31 14:31:15;;;;;;;2.53;2.30;;;;;;;;;;5093508;28;20440;-64
2021/12/31 14:33:43;;;;;;;2.90;2.70;;;;;;;;;;5093162;28;20448;-65
2021/12/31 14:36:10;;;;;;;4.27;2.53;;;;;;;;;;5093083;28;20922;-64
2021/12/31 14:38:38;;;;;;;4.70;2.43;;;;;;;;;;5093507;28;20891;-65
2021/12/31 14:41:21;;;;;;;5.33;2.27;;;;;;;;;;5092927;28;20473;-64
2021/12/31 14:43:48;;;;;;;3.30;2.53;;;;;;;;;;5094026;28;20572;-64
2021/12/31 14:46:15;;;;;;;3.57;2.60;;;;;;;;;;5093038;28;20523;-65
2021/12/31 14:48:44;;;;;;;2.13;1.93;;;;;;;;;;5093370;28;20536;-64
2021/12/31 14:51:11;;;;;;;4.37;2.70;;;;;;;;;;5093527;28;20512;-65
2021/12/31 14:53:39;;;;;;;2.80;2.50;;;;;;;;;;5093416;28;20493;-65
2021/12/31 14:56:06;;;;;;;4.70;2.70;;;;;;;;;;5093206;28;20530;-64